Senin
| Ora | Descriere | Temp | Se simte | Precipitatii | Umiditate | Vant |
|---|---|---|---|---|---|---|
| 00:00 | Senin | 13.8° | 13.8° | 0% | 56% | S 6.1 KM/H |
| 01:00 | Senin | 13.1° | 12.8° | 0% | 59% | S 7.2 KM/H |
| 02:00 | Senin | 10.3° | 12.1° | 0% | 66% | S 6.8 KM/H |
| 03:00 | Senin | 11.9° | 11.3° | 0% | 64% | SSE 7.6 KM/H |
| 04:00 | Senin | 11.5° | 10.5° | 0% | 67% | SE 9 KM/H |
| 05:00 | Senin | 11.1° | 10.1° | 0% | 70% | SE 9 KM/H |
| 06:00 | Senin | 10.6° | 9.8° | 0% | 73% | SE 7.9 KM/H |
| 07:00 | Senin | 11° | 10.2° | 0% | 76% | SSE 7.6 KM/H |
| 08:00 | Senin | 13.6° | 13.4° | 0% | 71% | SSE 7.2 KM/H |
| 09:00 | Senin | 16.5° | 16.5° | 0% | 62% | SSE 8.6 KM/H |
| 10:00 | Senin | 18.8° | 18.8° | 0% | 56% | SSE 9.7 KM/H |
| 11:00 | Senin | 20.7° | 20.8° | 0% | 51% | S 10.8 KM/H |
| 12:00 | Senin | 22.2° | 24.4° | 0% | 47% | S 11.9 KM/H |
| 13:00 | Senin | 23.3° | 24.5° | 0% | 40% | SSW 13.3 KM/H |
| 14:00 | Senin | 24.1° | 24.6° | 0% | 35% | SSW 15.1 KM/H |
| 15:00 | Senin | 24.5° | 24.7° | 0% | 34% | SSW 15.8 KM/H |
| 16:00 | Senin | 24.7° | 24.8° | 0% | 34% | SSW 15.8 KM/H |
| 17:00 | Senin | 24.7° | 24.8° | 0% | 33% | SSW 15.5 KM/H |
| 18:00 | Senin | 24.4° | 25° | 0% | 39% | SSW 13 KM/H |
| 19:00 | Senin | 23° | 24.7° | 0% | 48% | S 9.7 KM/H |
| 20:00 | Senin | 19.8° | 19.8° | 0% | 54% | S 10.4 KM/H |
| 21:00 | Senin | 17.4° | 17.4° | 0% | 53% | SSE 10.4 KM/H |
| 22:00 | Senin | 16.5° | 16.5° | 0% | 53% | SSE 10.4 KM/H |
| 23:00 | Senin | 15.8° | 15.8° | 0% | 54% | SSE 11.5 KM/H |